createdAt,value
2022-09-15T00:00:07.126Z,11.95
2022-09-15T00:02:33.932Z,9.18
2022-09-15T00:05:00.835Z,8.50
2022-09-15T00:07:27.644Z,12.35
2022-09-15T00:09:54.327Z,8.18
2022-09-15T00:12:21.089Z,10.73
2022-09-15T00:14:47.837Z,8.75
2022-09-15T00:17:14.635Z,12.52
2022-09-15T00:19:41.417Z,9.68
2022-09-15T00:22:08.068Z,7.90
2022-09-15T00:24:35.892Z,8.80
2022-09-15T00:27:03.302Z,6.85
2022-09-15T00:29:30.148Z,6.97
2022-09-15T00:31:56.850Z,5.80
2022-09-15T00:34:23.664Z,5.85
2022-09-15T00:36:50.381Z,6.88
2022-09-15T00:39:17.293Z,5.15
2022-09-15T00:41:43.984Z,5.00
2022-09-15T00:44:16.754Z,8.35
2022-09-15T00:46:58.731Z,6.63
2022-09-15T00:49:37.208Z,8.27
2022-09-15T00:52:42.050Z,5.20
2022-09-15T00:55:32.112Z,4.38
2022-09-15T00:58:06.670Z,4.93
2022-09-15T01:00:34.424Z,7.88
2022-09-15T01:03:01.791Z,5.75
2022-09-15T01:05:36.840Z,3.20
2022-09-15T01:08:17.592Z,3.67
2022-09-15T01:10:45.221Z,4.47
2022-09-15T01:13:14.316Z,4.97
2022-09-15T01:16:13.597Z,5.78
2022-09-15T01:19:02.900Z,4.60
2022-09-15T01:21:42.658Z,3.78
2022-09-15T01:24:45.166Z,5.00
2022-09-15T01:27:42.401Z,3.72
2022-09-15T01:30:13.959Z,3.17
2022-09-15T01:33:04.924Z,5.87
2022-09-15T01:35:56.188Z,4.30
2022-09-15T01:38:41.454Z,4.60
2022-09-15T01:41:14.348Z,6.07
2022-09-15T01:44:12.335Z,6.68
2022-09-15T01:46:54.388Z,5.55
2022-09-15T01:51:53.932Z,8.05
2022-09-15T01:54:26.256Z,4.90
2022-09-15T01:56:52.953Z,6.50
2022-09-15T01:59:19.715Z,4.22
2022-09-15T02:01:52.068Z,4.65
2022-09-15T02:04:50.597Z,3.25
2022-09-15T02:07:31.846Z,8.32
2022-09-15T02:10:17.673Z,6.17
2022-09-15T02:13:11.181Z,3.28
2022-09-15T02:15:43.540Z,6.35
2022-09-15T02:18:14.652Z,7.90
2022-09-15T02:20:58.476Z,7.67
2022-09-15T02:23:31.289Z,5.68
2022-09-15T02:26:05.035Z,6.03
2022-09-15T02:28:34.969Z,8.50
2022-09-15T02:31:04.901Z,5.55
2022-09-15T02:33:41.100Z,10.30
2022-09-15T02:36:10.924Z,5.45
2022-09-15T02:38:42.189Z,6.80
2022-09-15T02:41:08.986Z,7.30
2022-09-15T02:43:47.822Z,8.98
2022-09-15T02:46:16.313Z,10.93
2022-09-15T02:48:42.968Z,10.25
2022-09-15T02:51:09.845Z,11.38
2022-09-15T02:53:36.931Z,12.85
2022-09-15T02:56:06.525Z,11.13
2022-09-15T02:58:36.410Z,13.35
2022-09-15T03:01:05.625Z,10.30
2022-09-15T03:03:33.709Z,8.35
2022-09-15T03:06:16.426Z,10.93
2022-09-15T03:08:47.007Z,8.68
2022-09-15T03:11:14.448Z,8.52
2022-09-15T03:13:41.139Z,10.90
2022-09-15T03:16:09.860Z,8.10
2022-09-15T03:18:37.630Z,12.90
2022-09-15T03:21:06.191Z,10.25
2022-09-15T03:23:33.250Z,8.05
2022-09-15T03:26:00.009Z,7.55
2022-09-15T03:28:27.149Z,10.43
2022-09-15T03:30:54.609Z,8.35
2022-09-15T03:33:22.067Z,10.18
2022-09-15T03:35:50.386Z,7.35
2022-09-15T03:38:17.552Z,4.28
2022-09-15T03:40:45.003Z,8.85
2022-09-15T03:43:16.635Z,7.05
2022-09-15T03:45:45.252Z,8.82
2022-09-15T03:48:11.941Z,11.15
2022-09-15T03:50:38.517Z,11.40
2022-09-15T03:53:05.220Z,9.50
2022-09-15T03:55:31.808Z,12.82
2022-09-15T03:57:58.436Z,5.78
2022-09-15T04:00:25.025Z,3.72
2022-09-15T04:02:51.705Z,5.55
2022-09-15T04:05:18.381Z,4.38
2022-09-15T04:07:45.243Z,9.43
2022-09-15T04:10:16.323Z,5.68
2022-09-15T04:12:44.239Z,10.37
2022-09-15T04:15:10.998Z,5.72
2022-09-15T04:17:37.620Z,5.50
2022-09-15T04:20:04.414Z,12.27
2022-09-15T04:22:32.099Z,6.68
2022-09-15T04:24:58.724Z,11.60
2022-09-15T04:27:25.315Z,10.85
2022-09-15T04:29:52.891Z,5.15
2022-09-15T04:32:20.594Z,6.00
2022-09-15T04:34:47.382Z,4.32
2022-09-15T04:37:14.021Z,10.93
2022-09-15T04:39:40.637Z,5.03
2022-09-15T04:42:07.788Z,2.90
2022-09-15T04:44:34.405Z,3.33
2022-09-15T04:47:01.059Z,5.57
2022-09-15T04:49:28.843Z,2.42
2022-09-15T04:51:55.480Z,3.53
2022-09-15T04:54:22.125Z,3.17
2022-09-15T04:56:49.324Z,2.75
2022-09-15T04:59:17.588Z,2.33
2022-09-15T05:01:44.947Z,2.50
2022-09-15T05:04:12.177Z,2.15
2022-09-15T05:06:39.288Z,2.22
2022-09-15T05:09:10.453Z,4.10
2022-09-15T05:11:37.838Z,3.45
2022-09-15T05:14:04.924Z,2.00
2022-09-15T05:16:31.896Z,4.07
2022-09-15T05:19:00.898Z,2.20
2022-09-15T05:21:27.999Z,2.80
2022-09-15T05:23:55.115Z,3.88
2022-09-15T05:26:24.497Z,5.38
2022-09-15T05:28:51.843Z,14.07
2022-09-15T05:31:28.184Z,14.80
2022-09-15T05:33:55.316Z,15.20
2022-09-15T05:36:25.572Z,12.57
2022-09-15T05:38:58.882Z,11.35
2022-09-15T05:41:27.123Z,9.73
2022-09-15T05:43:56.864Z,11.05
2022-09-15T05:46:26.047Z,7.28
2022-09-15T05:48:55.982Z,4.47
2022-09-15T05:51:23.027Z,10.63
2022-09-15T05:53:50.838Z,4.80
2022-09-15T05:56:18.599Z,6.70
2022-09-15T05:58:47.352Z,8.77
2022-09-15T06:01:19.801Z,9.70
2022-09-15T06:03:47.241Z,15.45
2022-09-15T06:06:14.169Z,13.82
2022-09-15T06:08:44.382Z,12.70
2022-09-15T06:11:13.928Z,8.18
2022-09-15T06:13:40.668Z,6.90
2022-09-15T06:16:10.263Z,10.02
2022-09-15T06:18:38.598Z,15.20
2022-09-15T06:21:08.100Z,17.92
2022-09-15T06:23:35.295Z,17.23
2022-09-15T06:26:11.335Z,14.15
2022-09-15T06:28:39.672Z,15.90
2022-09-15T06:31:11.452Z,12.88
2022-09-15T06:33:42.784Z,12.35
2022-09-15T06:36:11.664Z,13.13
2022-09-15T06:38:39.515Z,12.07
2022-09-15T06:41:10.041Z,13.02
2022-09-15T06:43:37.124Z,14.50
2022-09-15T06:46:07.474Z,15.32
2022-09-15T06:48:35.004Z,14.93
2022-09-15T06:51:02.393Z,17.23
2022-09-15T06:53:34.526Z,17.08
2022-09-15T06:56:13.031Z,21.58
2022-09-15T06:58:40.818Z,18.17
2022-09-15T07:01:19.914Z,20.50
2022-09-15T07:03:46.728Z,21.10
2022-09-15T07:06:13.521Z,22.40
2022-09-15T07:08:40.967Z,16.63
2022-09-15T07:11:08.938Z,14.73
2022-09-15T07:13:36.071Z,17.77
2022-09-15T07:16:04.751Z,22.67
2022-09-15T07:18:32.420Z,22.17
2022-09-15T07:21:01.099Z,17.73
2022-09-15T07:23:28.255Z,15.52
2022-09-15T07:26:12.907Z,17.02
2022-09-15T07:28:42.231Z,19.75
2022-09-15T07:31:11.336Z,21.10
2022-09-15T07:33:38.543Z,20.08
2022-09-15T07:36:06.994Z,16.25
2022-09-15T07:38:34.424Z,25.75
2022-09-15T07:41:09.939Z,20.05
2022-09-15T07:43:36.951Z,26.10
2022-09-15T07:46:04.314Z,17.95
2022-09-15T07:48:31.948Z,21.35
2022-09-15T07:51:01.718Z,26.40
2022-09-15T07:53:29.720Z,25.00
2022-09-15T07:55:57.091Z,25.75
2022-09-15T07:58:23.837Z,29.40
2022-09-15T08:00:50.870Z,24.45
2022-09-15T08:03:17.673Z,27.23
2022-09-15T08:05:45.735Z,19.77
2022-09-15T08:08:12.812Z,26.80
2022-09-15T08:10:41.343Z,25.17
2022-09-15T08:13:08.245Z,26.10
2022-09-15T08:15:38.723Z,26.65
2022-09-15T08:18:06.099Z,24.75
2022-09-15T08:20:33.521Z,23.80
2022-09-15T08:23:00.316Z,16.08
2022-09-15T08:25:27.230Z,13.38
2022-09-15T08:27:54.995Z,22.98
2022-09-15T08:30:22.164Z,26.08
2022-09-15T08:32:49.772Z,26.80
2022-09-15T08:35:17.587Z,25.98
2022-09-15T08:37:44.445Z,23.55
2022-09-15T08:40:22.275Z,26.60
2022-09-15T08:42:55.398Z,23.67
2022-09-15T08:45:27.719Z,29.90
2022-09-15T08:48:00.040Z,21.83
2022-09-15T08:50:38.797Z,24.58
2022-09-15T08:53:28.699Z,24.85
2022-09-15T08:55:58.866Z,21.88
2022-09-15T08:58:35.552Z,23.48
2022-09-15T09:01:11.312Z,22.15
2022-09-15T09:04:03.791Z,18.02
2022-09-15T09:06:56.644Z,18.90
2022-09-15T09:09:42.297Z,18.48
2022-09-15T09:12:54.216Z,21.90
2022-09-15T09:15:41.890Z,20.63
2022-09-15T09:18:46.750Z,16.23
2022-09-15T09:21:13.411Z,15.60
2022-09-15T09:24:13.922Z,18.52
2022-09-15T09:26:40.560Z,15.75
2022-09-15T09:29:19.554Z,11.38
2022-09-15T09:31:48.627Z,17.63
2022-09-15T09:34:45.572Z,12.40
2022-09-15T09:37:15.774Z,9.07
2022-09-15T09:39:42.622Z,10.00
2022-09-15T09:42:16.335Z,9.90
2022-09-15T09:44:43.297Z,10.23
2022-09-15T09:47:10.140Z,5.78
2022-09-15T09:49:43.045Z,9.07
2022-09-15T09:52:09.677Z,7.15
2022-09-15T09:54:37.008Z,7.43
2022-09-15T09:57:39.915Z,9.05
2022-09-15T10:00:36.735Z,4.95
2022-09-15T10:03:18.326Z,7.82
2022-09-15T10:05:46.248Z,6.38
2022-09-15T10:08:20.629Z,6.35
2022-09-15T10:10:55.916Z,5.35
2022-09-15T10:13:22.944Z,4.95
2022-09-15T10:15:56.793Z,7.97
2022-09-15T10:18:35.962Z,6.00
2022-09-15T10:21:09.409Z,8.07
2022-09-15T10:23:36.236Z,5.18
2022-09-15T10:26:19.976Z,5.22
2022-09-15T10:29:11.725Z,5.10
2022-09-15T10:31:38.875Z,9.57
2022-09-15T10:34:30.334Z,6.10
2022-09-15T10:37:29.553Z,6.10
2022-09-15T10:39:59.976Z,6.32
2022-09-15T10:42:46.125Z,5.55
2022-09-15T10:45:37.957Z,3.70
2022-09-15T10:48:38.055Z,5.25
2022-09-15T10:51:28.178Z,7.70
2022-09-15T10:54:00.798Z,7.55
2022-09-15T10:56:48.231Z,15.05
2022-09-15T10:59:26.807Z,8.73
2022-09-15T11:02:27.348Z,6.20
2022-09-15T11:05:22.510Z,9.60
2022-09-15T11:07:56.757Z,7.90
2022-09-15T11:11:04.428Z,6.57
2022-09-15T11:13:53.347Z,7.15
2022-09-15T11:16:41.303Z,5.85
2022-09-15T11:19:24.553Z,3.10
2022-09-15T11:22:05.893Z,8.13
2022-09-15T11:24:49.687Z,6.97
2022-09-15T11:27:20.067Z,3.67
2022-09-15T11:30:26.328Z,8.23
2022-09-15T11:33:04.165Z,5.93
2022-09-15T11:35:40.284Z,4.72
2022-09-15T11:38:42.723Z,3.13
2022-09-15T11:41:13.616Z,4.10
2022-09-15T11:43:55.359Z,4.57
2022-09-15T11:46:35.736Z,4.68
2022-09-15T11:49:15.021Z,6.95
2022-09-15T11:51:50.657Z,10.98
2022-09-15T11:54:34.690Z,2.67
2022-09-15T11:57:02.863Z,5.47
2022-09-15T11:59:57.724Z,6.22
2022-09-15T12:02:34.975Z,5.43
2022-09-15T12:05:22.114Z,6.07
2022-09-15T12:07:55.003Z,4.70
2022-09-15T12:10:28.729Z,4.68
2022-09-15T12:12:56.412Z,3.80
2022-09-15T12:15:29.378Z,4.25
2022-09-15T12:18:06.590Z,4.45
2022-09-15T12:21:01.045Z,5.00
2022-09-15T12:23:40.941Z,2.72
2022-09-15T12:26:20.980Z,8.50
2022-09-15T12:28:50.798Z,6.68
2022-09-15T12:31:26.404Z,5.75
2022-09-15T12:34:23.159Z,5.00
2022-09-15T12:36:54.230Z,3.30
2022-09-15T12:39:47.726Z,5.95
2022-09-15T12:42:31.447Z,7.15
2022-09-15T12:45:05.840Z,6.22
2022-09-15T12:47:41.592Z,6.68
2022-09-15T12:50:14.502Z,7.88
2022-09-15T12:52:51.507Z,3.63
2022-09-15T12:55:27.629Z,7.88
2022-09-15T12:58:00.623Z,5.55
2022-09-15T13:00:29.185Z,6.57
2022-09-15T13:02:56.533Z,6.53
2022-09-15T13:05:41.478Z,7.60
2022-09-15T13:08:12.715Z,5.20
2022-09-15T13:10:43.753Z,4.72
2022-09-15T13:13:15.168Z,6.95
2022-09-15T13:15:46.571Z,7.80
2022-09-15T13:18:17.958Z,7.97
2022-09-15T13:20:53.805Z,6.97
2022-09-15T13:23:24.992Z,6.70
2022-09-15T13:25:56.419Z,6.70
2022-09-15T13:28:24.053Z,5.13
2022-09-15T13:31:03.907Z,6.72
2022-09-15T13:40:12.979Z,6.85
2022-09-15T13:42:45.965Z,6.07
2022-09-15T13:45:24.037Z,7.78
2022-09-15T13:48:14.779Z,7.07
2022-09-15T13:50:47.407Z,6.95
2022-09-15T13:53:24.137Z,5.35
2022-09-15T13:55:53.666Z,7.57
2022-09-15T14:01:12.610Z,6.57
2022-09-15T14:03:46.356Z,6.97
2022-09-15T14:06:19.514Z,7.60
2022-09-15T14:08:51.652Z,8.50
2022-09-15T14:11:30.369Z,9.02
2022-09-15T14:13:58.439Z,5.07
2022-09-15T14:16:30.134Z,9.13
2022-09-15T14:21:27.944Z,8.30
2022-09-15T14:23:57.120Z,6.97
2022-09-15T14:26:26.870Z,6.53
2022-09-15T14:28:58.006Z,5.38
2022-09-15T14:31:39.058Z,5.22
2022-09-15T14:34:14.533Z,10.02
2022-09-15T14:36:41.553Z,9.82
2022-09-15T14:39:21.443Z,11.23
2022-09-15T14:41:49.101Z,14.25
2022-09-15T14:47:28.619Z,7.00
2022-09-15T14:50:08.059Z,12.15
2022-09-15T14:52:40.261Z,14.10
2022-09-15T14:55:13.947Z,9.32
2022-09-15T15:00:22.844Z,6.43
2022-09-15T15:03:06.928Z,6.88
2022-09-15T15:05:40.536Z,6.20
2022-09-15T15:08:09.507Z,7.97
2022-09-15T15:10:37.112Z,6.72
2022-09-15T15:13:09.625Z,11.60
2022-09-15T15:15:38.902Z,8.55
2022-09-15T15:18:31.002Z,9.43
2022-09-15T15:20:59.083Z,12.20
2022-09-15T15:23:26.692Z,5.72
2022-09-15T15:25:54.136Z,6.05
2022-09-15T15:28:35.926Z,7.78
2022-09-15T15:31:16.159Z,9.82
2022-09-15T15:33:46.691Z,5.70
2022-09-15T15:36:13.755Z,9.35
2022-09-15T15:38:51.052Z,7.07
2022-09-15T15:41:31.282Z,5.78
2022-09-15T15:44:22.499Z,6.40
2022-09-15T15:46:49.825Z,6.35
2022-09-15T15:49:17.886Z,4.10
2022-09-15T15:51:44.812Z,4.68
2022-09-15T15:54:12.031Z,6.60
2022-09-15T15:56:39.162Z,7.47
2022-09-15T15:59:06.246Z,4.68
2022-09-15T16:01:33.602Z,8.27
2022-09-15T16:04:00.588Z,5.45
2022-09-15T16:06:27.717Z,5.18
2022-09-15T16:08:58.103Z,10.98
2022-09-15T16:11:25.070Z,4.68
2022-09-15T16:13:52.527Z,9.23
2022-09-15T16:16:25.230Z,9.57
2022-09-15T16:18:52.373Z,5.82
2022-09-15T16:21:28.218Z,5.75
2022-09-15T16:23:55.098Z,5.75
2022-09-15T16:26:23.618Z,8.02
2022-09-15T16:28:51.174Z,5.47
2022-09-15T16:31:17.862Z,5.90
2022-09-15T16:33:45.496Z,6.18
2022-09-15T16:36:13.878Z,5.97
2022-09-15T16:38:41.233Z,4.10
2022-09-15T16:41:26.949Z,6.15
2022-09-15T16:43:55.756Z,5.63
2022-09-15T16:46:22.718Z,6.82
2022-09-15T16:48:49.382Z,7.15
2022-09-15T16:51:31.430Z,7.32
2022-09-15T16:53:58.786Z,8.98
2022-09-15T16:56:25.453Z,5.78
2022-09-15T16:58:58.828Z,4.97
2022-09-15T17:01:26.863Z,6.05
2022-09-15T17:03:53.686Z,4.15
2022-09-15T17:06:21.995Z,5.25
2022-09-15T17:08:48.987Z,7.97
2022-09-15T17:11:18.775Z,3.40
2022-09-15T17:13:46.397Z,8.00
2022-09-15T17:16:15.334Z,3.67
2022-09-15T17:18:42.099Z,4.93
2022-09-15T17:21:12.389Z,7.28
2022-09-15T17:23:44.475Z,7.20
2022-09-15T17:26:13.565Z,4.38
2022-09-15T17:28:41.042Z,4.28
2022-09-15T17:31:19.630Z,2.97
2022-09-15T17:33:47.958Z,6.38
2022-09-15T17:36:14.934Z,5.03
2022-09-15T17:38:41.675Z,3.63
2022-09-15T17:41:19.867Z,2.85
2022-09-15T17:43:47.125Z,6.25
2022-09-15T17:46:14.134Z,3.53
2022-09-15T17:48:40.887Z,4.78
2022-09-15T17:51:09.577Z,6.18
2022-09-15T17:53:36.402Z,6.47
2022-09-15T17:56:03.250Z,4.38
2022-09-15T17:58:31.365Z,3.17
2022-09-15T18:00:58.729Z,2.95
2022-09-15T18:03:34.910Z,2.50
2022-09-15T18:06:07.419Z,6.20
2022-09-15T18:08:35.852Z,3.35
2022-09-15T18:11:03.969Z,3.90
2022-09-15T18:13:31.251Z,3.63
2022-09-15T18:16:05.036Z,2.45
2022-09-15T18:18:31.922Z,4.10
2022-09-15T18:20:58.862Z,4.80
2022-09-15T18:23:30.834Z,4.20
2022-09-15T18:28:24.311Z,4.63
2022-09-15T18:30:51.634Z,2.58
2022-09-15T18:33:23.681Z,3.45
2022-09-15T18:35:52.885Z,4.88
2022-09-15T18:38:20.604Z,3.83
2022-09-15T18:40:53.444Z,7.05
2022-09-15T18:43:21.294Z,3.55
2022-09-15T18:45:48.859Z,5.82
2022-09-15T18:48:16.000Z,3.50
2022-09-15T18:50:44.573Z,5.97
2022-09-15T18:53:11.928Z,4.55
2022-09-15T18:55:41.470Z,4.75
2022-09-15T18:58:08.760Z,7.00
2022-09-15T19:00:35.959Z,6.20
2022-09-15T19:03:05.154Z,4.35
2022-09-15T19:05:33.204Z,4.82
2022-09-15T19:08:00.394Z,5.82
2022-09-15T19:10:27.372Z,3.10
2022-09-15T19:12:54.665Z,7.65
2022-09-15T19:15:23.616Z,6.05
2022-09-15T19:17:51.286Z,5.10
2022-09-15T19:20:18.613Z,3.47
2022-09-15T19:22:46.023Z,5.95
2022-09-15T19:25:13.419Z,4.47
2022-09-15T19:27:41.251Z,4.47
2022-09-15T19:30:10.033Z,4.63
2022-09-15T19:32:38.215Z,5.82
2022-09-15T19:35:05.313Z,6.00
2022-09-15T19:37:35.545Z,5.40
2022-09-15T19:40:03.606Z,5.93
2022-09-15T19:42:30.479Z,6.25
2022-09-15T19:44:57.133Z,4.78
2022-09-15T19:47:24.010Z,6.05
2022-09-15T19:49:52.162Z,4.82
2022-09-15T19:52:18.807Z,5.60
2022-09-15T19:54:45.443Z,4.18
2022-09-15T19:57:12.262Z,4.68
2022-09-15T19:59:39.011Z,5.57
2022-09-15T20:02:05.785Z,4.40
2022-09-15T20:04:32.550Z,4.82
2022-09-15T20:06:59.244Z,4.78
2022-09-15T20:09:26.299Z,7.90
2022-09-15T20:11:53.091Z,7.82
2022-09-15T20:14:19.719Z,15.75
2022-09-15T20:16:46.443Z,5.10
2022-09-15T20:19:13.184Z,3.72
2022-09-15T20:21:55.811Z,5.70
2022-09-15T20:24:23.708Z,3.60
2022-09-15T20:26:51.184Z,3.67
2022-09-15T20:29:18.432Z,4.88
2022-09-15T20:31:45.560Z,6.47
2022-09-15T20:34:12.287Z,4.35
2022-09-15T20:36:39.371Z,6.85
2022-09-15T20:39:13.036Z,5.70
2022-09-15T20:41:40.670Z,3.47
2022-09-15T20:44:10.144Z,2.50
2022-09-15T20:46:37.177Z,7.85
2022-09-15T20:49:08.971Z,5.97
2022-09-15T20:51:35.709Z,5.82
2022-09-15T20:54:04.266Z,4.78
2022-09-15T20:56:34.611Z,4.68
2022-09-15T20:59:01.249Z,5.15
2022-09-15T21:01:31.948Z,5.88
2022-09-15T21:03:59.037Z,6.00
2022-09-15T21:06:27.975Z,7.28
2022-09-15T21:08:56.473Z,8.65
2022-09-15T21:11:24.042Z,4.45
2022-09-15T21:13:50.847Z,6.88
2022-09-15T21:16:20.632Z,5.63
2022-09-15T21:18:48.453Z,6.75
2022-09-15T21:21:21.672Z,7.57
2022-09-15T21:23:51.586Z,9.65
2022-09-15T21:26:26.865Z,8.15
2022-09-15T21:28:55.334Z,8.20
2022-09-15T21:31:25.415Z,8.70
2022-09-15T21:33:53.691Z,4.78
2022-09-15T21:36:29.483Z,8.05
2022-09-15T21:38:57.483Z,5.43
2022-09-15T21:41:29.061Z,4.88
2022-09-15T21:43:57.983Z,4.40
2022-09-15T21:46:27.381Z,7.22
2022-09-15T21:48:56.383Z,6.72
2022-09-15T21:51:24.985Z,7.57
2022-09-15T21:53:53.996Z,4.90
2022-09-15T21:56:21.844Z,5.60
2022-09-15T21:58:48.865Z,7.90
2022-09-15T22:01:27.827Z,7.10
2022-09-15T22:03:57.300Z,5.03
2022-09-15T22:06:27.735Z,10.50
2022-09-15T22:08:55.350Z,7.13
2022-09-15T22:11:22.685Z,7.97
2022-09-15T22:13:49.838Z,4.22
2022-09-15T22:16:19.747Z,5.78
2022-09-15T22:18:47.695Z,4.95
2022-09-15T22:21:17.391Z,7.35
2022-09-15T22:23:44.914Z,8.88
2022-09-15T22:26:15.141Z,5.10
2022-09-15T22:28:42.095Z,5.38
2022-09-15T22:31:10.740Z,3.05
2022-09-15T22:33:39.488Z,7.60
2022-09-15T22:36:12.688Z,5.40
2022-09-15T22:38:39.382Z,4.47
2022-09-15T22:41:09.155Z,7.55
2022-09-15T22:43:36.439Z,3.75
2022-09-15T22:46:03.302Z,6.75
2022-09-15T22:48:30.051Z,4.30
2022-09-15T22:50:56.696Z,5.43
2022-09-15T22:53:23.514Z,8.05
2022-09-15T22:55:51.254Z,7.13
2022-09-15T22:58:18.040Z,6.88
2022-09-15T23:00:45.163Z,8.20
2022-09-15T23:03:12.234Z,5.00
2022-09-15T23:05:38.986Z,6.18
2022-09-15T23:08:05.654Z,5.97
2022-09-15T23:10:33.280Z,5.18
2022-09-15T23:12:59.942Z,7.93
2022-09-15T23:15:27.188Z,4.97
2022-09-15T23:17:53.903Z,8.63
2022-09-15T23:20:20.907Z,7.22
2022-09-15T23:22:47.532Z,2.95
2022-09-15T23:25:14.333Z,4.13
2022-09-15T23:27:40.947Z,5.15
2022-09-15T23:30:08.167Z,5.68
2022-09-15T23:32:34.827Z,4.70
2022-09-15T23:35:03.845Z,6.72
2022-09-15T23:37:30.604Z,6.22
2022-09-15T23:39:57.436Z,4.47
2022-09-15T23:42:24.200Z,6.57
2022-09-15T23:44:50.825Z,6.50
2022-09-15T23:47:17.495Z,4.60
2022-09-15T23:49:44.224Z,3.70
2022-09-15T23:52:10.865Z,2.83
2022-09-15T23:54:37.506Z,5.63
2022-09-15T23:57:04.296Z,5.32
2022-09-15T23:59:30.916Z,4.40
